Time;durP1;ratioP1;P1;durP2;ratioP2;P2;SDS_P1;SDS_P2;PMS_P1;PMS_P2;Temp;Humidity;BMP_temperature;BMP_pressure;BME280_temperature;BME280_humidity;BME280_pressure;Samples;Min_cycle;Max_cycle;Signal;HPM_P1;HPM_P2
2023/06/02 00:01:09;;;;;;;;;;;18.70;68.50;;;;;;6129489;23;19905;-90
2023/06/02 00:03:36;;;;;;;;;;;18.70;68.60;;;;;;6129459;23;19905;-90
2023/06/02 00:06:05;;;;;;;;;;;18.70;68.60;;;;;;6130361;23;20329;-90
2023/06/02 00:08:31;;;;;;;;;;;18.70;68.60;;;;;;6130258;23;19905;-91
2023/06/02 00:10:57;;;;;;;;;;;18.70;68.70;;;;;;6129724;23;20334;-90
2023/06/02 00:13:23;;;;;;;;;;;18.70;68.70;;;;;;6129459;23;19960;-90
2023/06/02 00:15:48;;;;;;;;;;;18.70;68.80;;;;;;6129473;23;20474;-90
2023/06/02 00:18:14;;;;;;;;;;;18.70;68.80;;;;;;6130450;23;19959;-90
2023/06/02 00:20:41;;;;;;;;;;;18.70;68.80;;;;;;6131556;23;19984;-90
2023/06/02 00:23:08;;;;;;;;;;;18.70;68.80;;;;;;6140041;23;20315;-90
2023/06/02 00:25:34;;;;;;;;;;;18.70;68.90;;;;;;6154635;23;19955;-90
2023/06/02 00:27:59;;;;;;;;;;;18.70;68.90;;;;;;6155491;23;19979;-90
2023/06/02 00:30:26;;;;;;;;;;;18.70;68.90;;;;;;6154599;23;19931;-90
2023/06/02 00:32:53;;;;;;;;;;;18.60;68.90;;;;;;6156123;23;19944;-90
2023/06/02 00:35:19;;;;;;;;;;;18.60;69.00;;;;;;6154585;23;19905;-90
2023/06/02 00:37:45;;;;;;;;;;;18.60;69.00;;;;;;6153994;23;19927;-90
2023/06/02 00:40:10;;;;;;;;;;;18.60;69.00;;;;;;6154087;23;19909;-90
2023/06/02 00:42:36;;;;;;;;;;;18.60;69.00;;;;;;6154196;23;19912;-91
2023/06/02 00:45:02;;;;;;;;;;;18.60;69.10;;;;;;6154116;23;20234;-90
2023/06/02 00:47:28;;;;;;;;;;;18.60;69.00;;;;;;6153981;23;19905;-90
2023/06/02 00:49:53;;;;;;;;;;;18.60;69.10;;;;;;6153567;23;19904;-90
2023/06/02 00:52:19;;;;;;;;;;;18.60;69.10;;;;;;6155165;23;19908;-90
2023/06/02 00:54:44;;;;;;;;;;;18.60;69.20;;;;;;6154110;23;20240;-89
2023/06/02 00:57:10;;;;;;;;;;;18.60;69.10;;;;;;6153701;23;19905;-90
2023/06/02 00:59:39;;;;;;;;;;;18.60;69.10;;;;;;6154571;23;20234;-90
2023/06/02 01:02:05;;;;;;;;;;;18.60;69.10;;;;;;6154420;23;19905;-90
2023/06/02 01:04:31;;;;;;;;;;;18.60;69.10;;;;;;6154193;23;19947;-90
2023/06/02 01:07:00;;;;;;;;;;;18.60;69.10;;;;;;6155499;23;19924;-90
2023/06/02 01:09:26;;;;;;;;;;;18.60;69.10;;;;;;6154329;23;19944;-90
2023/06/02 01:11:52;;;;;;;;;;;18.60;69.20;;;;;;6153359;23;19999;-90
2023/06/02 01:14:17;;;;;;;;;;;18.60;69.20;;;;;;6154542;23;19936;-90
2023/06/02 01:16:44;;;;;;;;;;;18.60;69.20;;;;;;6154114;23;19905;-90
2023/06/02 01:19:14;;;;;;;;;;;18.60;69.20;;;;;;6153214;23;19959;-90
2023/06/02 01:21:41;;;;;;;;;;;18.60;69.20;;;;;;6153061;23;19987;-90
2023/06/02 01:24:07;;;;;;;;;;;18.60;69.20;;;;;;6150556;23;19912;-90
2023/06/02 01:26:34;;;;;;;;;;;18.50;69.10;;;;;;6124341;23;19908;-90
2023/06/02 01:29:03;;;;;;;;;;;18.50;69.10;;;;;;6124682;23;19905;-90
2023/06/02 01:31:46;;;;;;;;;;;18.50;69.10;;;;;;6124338;23;19987;-90
2023/06/02 01:34:23;;;;;;;;;;;18.50;69.10;;;;;;6124936;23;19912;-90
2023/06/02 01:36:50;;;;;;;;;;;18.50;69.10;;;;;;6127455;23;19909;-90
2023/06/02 01:39:16;;;;;;;;;;;18.50;69.10;;;;;;6128188;23;19905;-90
2023/06/02 01:41:44;;;;;;;;;;;18.50;69.10;;;;;;6127617;23;20337;-90
2023/06/02 01:44:10;;;;;;;;;;;18.50;69.10;;;;;;6127248;23;20346;-90
2023/06/02 01:46:35;;;;;;;;;;;18.50;69.10;;;;;;6126947;23;19909;-90
2023/06/02 01:49:01;;;;;;;;;;;18.50;69.10;;;;;;6128350;23;20462;-90
2023/06/02 01:51:26;;;;;;;;;;;18.50;69.10;;;;;;6128751;23;19936;-90
2023/06/02 01:53:52;;;;;;;;;;;18.50;69.00;;;;;;6129819;23;19983;-90
2023/06/02 01:56:17;;;;;;;;;;;18.50;69.00;;;;;;6128557;23;19905;-89
2023/06/02 01:58:43;;;;;;;;;;;18.50;69.00;;;;;;6127232;23;19905;-90
2023/06/02 02:01:09;;;;;;;;;;;18.50;69.00;;;;;;6127488;23;19924;-90
2023/06/02 02:03:37;;;;;;;;;;;18.40;68.90;;;;;;6127924;23;19960;-90
2023/06/02 02:06:03;;;;;;;;;;;18.40;68.90;;;;;;6127035;23;20263;-91
2023/06/02 02:08:31;;;;;;;;;;;18.40;68.70;;;;;;6126916;23;19905;-90
2023/06/02 02:10:56;;;;;;;;;;;18.40;68.70;;;;;;6125430;23;19909;-90
2023/06/02 02:13:22;;;;;;;;;;;18.40;68.70;;;;;;6128194;23;19917;-91
2023/06/02 02:15:47;;;;;;;;;;;18.40;68.70;;;;;;6126977;23;19905;-90
2023/06/02 02:18:15;;;;;;;;;;;18.40;68.70;;;;;;6127465;23;19905;-90
2023/06/02 02:20:41;;;;;;;;;;;18.40;68.70;;;;;;6128979;23;19911;-90
2023/06/02 02:23:06;;;;;;;;;;;18.40;68.80;;;;;;6127397;23;20021;-90
2023/06/02 02:25:32;;;;;;;;;;;18.40;68.70;;;;;;6127264;23;19940;-90
2023/06/02 02:27:57;;;;;;;;;;;18.40;68.70;;;;;;6126995;23;20118;-91
2023/06/02 02:30:22;;;;;;;;;;;18.40;68.70;;;;;;6127035;23;19951;-90
2023/06/02 02:32:48;;;;;;;;;;;18.40;68.70;;;;;;6128910;23;19959;-91
2023/06/02 02:35:16;;;;;;;;;;;18.40;68.60;;;;;;6127726;23;20265;-90
2023/06/02 02:37:43;;;;;;;;;;;18.40;68.70;;;;;;6126570;23;20235;-90
2023/06/02 02:40:09;;;;;;;;;;;18.30;68.60;;;;;;6126699;23;19909;-90
2023/06/02 02:42:34;;;;;;;;;;;18.30;68.60;;;;;;6128835;23;20489;-90
2023/06/02 02:45:02;;;;;;;;;;;18.30;69.40;;;;;;6128075;23;20294;-90
2023/06/02 02:47:27;;;;;;;;;;;18.30;68.40;;;;;;6127342;23;19941;-90
2023/06/02 02:49:53;;;;;;;;;;;18.30;68.50;;;;;;6124389;23;19912;-90
2023/06/02 02:52:18;;;;;;;;;;;18.30;68.40;;;;;;6125503;23;19908;-90
2023/06/02 02:54:44;;;;;;;;;;;18.30;68.50;;;;;;6125720;23;19909;-90
2023/06/02 02:57:09;;;;;;;;;;;18.30;68.50;;;;;;6125887;23;20627;-90
2023/06/02 02:59:35;;;;;;;;;;;18.30;68.60;;;;;;6127199;23;19904;-90
2023/06/02 03:02:01;;;;;;;;;;;18.30;68.40;;;;;;6125737;23;19905;-90
2023/06/02 03:04:27;;;;;;;;;;;18.30;68.40;;;;;;6125369;23;19905;-90
2023/06/02 03:06:54;;;;;;;;;;;18.30;68.50;;;;;;6124947;23;19912;-90
2023/06/02 03:09:20;;;;;;;;;;;18.30;68.30;;;;;;6125434;23;20322;-91
2023/06/02 03:11:45;;;;;;;;;;;18.30;68.40;;;;;;6125390;23;19996;-90
2023/06/02 03:14:11;;;;;;;;;;;18.20;68.40;;;;;;6125682;23;19912;-90
2023/06/02 03:16:40;;;;;;;;;;;18.20;68.30;;;;;;6124899;23;20303;-91
2023/06/02 03:19:06;;;;;;;;;;;18.20;68.40;;;;;;6124822;23;19905;-91
2023/06/02 03:21:41;;;;;;;;;;;18.20;68.30;;;;;;6125724;23;19916;-90
2023/06/02 03:24:11;;;;;;;;;;;18.20;68.30;;;;;;6126023;23;19983;-90
2023/06/02 03:26:37;;;;;;;;;;;18.20;68.50;;;;;;6126314;23;19905;-90
2023/06/02 03:29:02;;;;;;;;;;;18.20;68.30;;;;;;6125610;23;19936;-90
2023/06/02 03:31:28;;;;;;;;;;;18.20;68.30;;;;;;6126634;23;20312;-90
2023/06/02 03:33:54;;;;;;;;;;;18.10;68.10;;;;;;6126577;23;19913;-90
2023/06/02 03:36:20;;;;;;;;;;;18.20;68.30;;;;;;6126957;23;19911;-90
2023/06/02 03:38:46;;;;;;;;;;;18.20;68.20;;;;;;6126061;23;19991;-90
2023/06/02 03:41:11;;;;;;;;;;;18.20;68.10;;;;;;6126360;23;20327;-88
2023/06/02 03:43:37;;;;;;;;;;;18.10;68.00;;;;;;6127609;23;19935;-90
2023/06/02 03:46:02;;;;;;;;;;;18.10;68.20;;;;;;6126803;23;20382;-90
2023/06/02 03:48:28;;;;;;;;;;;18.20;68.20;;;;;;6126931;23;20385;-90
2023/06/02 03:50:53;;;;;;;;;;;18.10;68.20;;;;;;6126812;23;20342;-90
2023/06/02 03:53:19;;;;;;;;;;;18.10;68.20;;;;;;6127863;23;19917;-90
2023/06/02 03:55:45;;;;;;;;;;;18.10;68.10;;;;;;6125477;23;19959;-91
2023/06/02 03:58:12;;;;;;;;;;;18.10;68.20;;;;;;6125009;23;19905;-90
2023/06/02 04:00:38;;;;;;;;;;;18.10;68.30;;;;;;6125867;23;19909;-90
2023/06/02 04:03:03;;;;;;;;;;;18.10;68.20;;;;;;6125750;23;19930;-90
2023/06/02 04:05:29;;;;;;;;;;;18.10;68.10;;;;;;6125565;23;19909;-90
2023/06/02 04:07:56;;;;;;;;;;;18.10;68.20;;;;;;6125559;23;19909;-90
2023/06/02 04:10:21;;;;;;;;;;;18.10;68.10;;;;;;6124900;23;20279;-90
2023/06/02 04:12:47;;;;;;;;;;;18.20;68.30;;;;;;6127715;23;19921;-90
2023/06/02 04:15:13;;;;;;;;;;;18.10;68.30;;;;;;6126448;23;19912;-90
2023/06/02 04:17:38;;;;;;;;;;;18.10;68.40;;;;;;6126292;23;19905;-90
2023/06/02 04:20:04;;;;;;;;;;;18.10;69.10;;;;;;6125089;23;19983;-90
2023/06/02 04:22:30;;;;;;;;;;;18.10;68.20;;;;;;6124429;23;19925;-89
2023/06/02 04:24:55;;;;;;;;;;;18.10;68.50;;;;;;6125099;23;19905;-90
2023/06/02 04:27:20;;;;;;;;;;;18.10;68.20;;;;;;6125075;23;19909;-90
2023/06/02 04:29:46;;;;;;;;;;;18.10;68.30;;;;;;6125191;23;19905;-90
2023/06/02 04:32:11;;;;;;;;;;;18.10;68.40;;;;;;6125236;23;19913;-90
2023/06/02 04:34:37;;;;;;;;;;;18.10;68.50;;;;;;6125026;23;19936;-90
2023/06/02 04:37:03;;;;;;;;;;;18.10;68.20;;;;;;6125984;23;19905;-90
2023/06/02 04:39:28;;;;;;;;;;;18.10;68.50;;;;;;6125685;23;19972;-90
2023/06/02 04:41:56;;;;;;;;;;;18.10;68.60;;;;;;6125834;23;19905;-90
2023/06/02 04:44:22;;;;;;;;;;;18.10;68.50;;;;;;6125479;23;19963;-90
2023/06/02 04:46:48;;;;;;;;;;;18.10;68.60;;;;;;6124276;23;19905;-90
2023/06/02 04:49:13;;;;;;;;;;;18.10;68.60;;;;;;6124449;23;19905;-90
2023/06/02 04:51:39;;;;;;;;;;;18.10;68.60;;;;;;6123133;23;19916;-90
2023/06/02 04:54:05;;;;;;;;;;;18.10;68.50;;;;;;6124682;23;19913;-90
2023/06/02 04:56:31;;;;;;;;;;;18.10;68.60;;;;;;6124238;23;19905;-90
2023/06/02 04:58:56;;;;;;;;;;;18.20;68.70;;;;;;6125735;23;19960;-90
2023/06/02 05:01:22;;;;;;;;;;;18.10;68.50;;;;;;6124496;23;19960;-90
2023/06/02 05:03:47;;;;;;;;;;;18.20;68.50;;;;;;6124337;23;20412;-90
2023/06/02 05:06:13;;;;;;;;;;;18.10;68.50;;;;;;6124078;23;20335;-91
2023/06/02 05:08:38;;;;;;;;;;;18.20;68.50;;;;;;6124899;23;19905;-91
2023/06/02 05:11:05;;;;;;;;;;;18.20;68.60;;;;;;6124220;23;19984;-91
2023/06/02 05:13:31;;;;;;;;;;;18.20;68.70;;;;;;6123466;23;19920;-90
2023/06/02 05:15:56;;;;;;;;;;;18.20;68.70;;;;;;6123793;23;19905;-90
2023/06/02 05:18:23;;;;;;;;;;;18.20;68.70;;;;;;6124762;23;19955;-91
2023/06/02 05:20:50;;;;;;;;;;;18.20;68.60;;;;;;6124350;23;19905;-91
2023/06/02 05:23:19;;;;;;;;;;;18.20;68.70;;;;;;6123640;23;20235;-90
2023/06/02 05:25:45;;;;;;;;;;;18.20;68.80;;;;;;6124922;23;19916;-92
2023/06/02 05:28:14;;;;;;;;;;;18.20;68.90;;;;;;6125451;23;19905;-91
2023/06/02 05:30:40;;;;;;;;;;;18.30;68.90;;;;;;6124975;23;20242;-91
2023/06/02 05:33:05;;;;;;;;;;;18.30;68.90;;;;;;6125073;23;19936;-91
2023/06/02 05:35:31;;;;;;;;;;;18.30;68.90;;;;;;6126431;23;19905;-91
2023/06/02 05:37:59;;;;;;;;;;;18.30;68.90;;;;;;6125539;23;19905;-91
2023/06/02 05:40:27;;;;;;;;;;;18.30;68.80;;;;;;6125943;23;19991;-91
2023/06/02 05:42:52;;;;;;;;;;;18.30;68.90;;;;;;6126160;23;19931;-91
2023/06/02 05:45:18;;;;;;;;;;;18.40;68.90;;;;;;6126074;23;20295;-91
2023/06/02 05:47:43;;;;;;;;;;;18.40;68.90;;;;;;6125882;23;19957;-91
2023/06/02 05:50:10;;;;;;;;;;;18.40;68.90;;;;;;6125485;23;19929;-91
2023/06/02 05:52:36;;;;;;;;;;;18.40;68.90;;;;;;6124983;23;19936;-91
2023/06/02 05:55:01;;;;;;;;;;;18.40;68.70;;;;;;6124624;23;20311;-91
2023/06/02 05:57:27;;;;;;;;;;;18.50;69.30;;;;;;6124639;23;19905;-91
2023/06/02 05:59:52;;;;;;;;;;;18.50;68.60;;;;;;6125152;23;19916;-91
2023/06/02 06:02:18;;;;;;;;;;;18.60;68.50;;;;;;6123899;23;19936;-91
2023/06/02 06:04:43;;;;;;;;;;;18.60;68.40;;;;;;6124526;23;20378;-92
2023/06/02 06:07:09;;;;;;;;;;;18.60;68.20;;;;;;6124468;23;19905;-91
2023/06/02 06:09:34;;;;;;;;;;;18.60;68.00;;;;;;6124924;23;19908;-92
2023/06/02 06:12:00;;;;;;;;;;;18.70;68.00;;;;;;6123897;23;19915;-91
2023/06/02 06:14:25;;;;;;;;;;;18.70;67.90;;;;;;6124307;23;20220;-92
2023/06/02 06:16:51;;;;;;;;;;;18.80;67.90;;;;;;6123931;23;20239;-91
2023/06/02 06:19:18;;;;;;;;;;;18.80;68.60;;;;;;6123667;23;20338;-92
2023/06/02 06:21:43;;;;;;;;;;;18.80;67.70;;;;;;6125610;23;19968;-92
2023/06/02 06:24:09;;;;;;;;;;;18.90;67.60;;;;;;6126329;23;20469;-92
2023/06/02 06:26:34;;;;;;;;;;;18.90;67.50;;;;;;6124375;23;19908;-93
2023/06/02 06:29:00;;;;;;;;;;;18.90;67.50;;;;;;6126517;23;19905;-91
2023/06/02 06:31:25;;;;;;;;;;;19.00;67.30;;;;;;6127864;23;19975;-94
2023/06/02 06:33:52;;;;;;;;;;;19.00;66.80;;;;;;6127249;23;19917;-94
2023/06/02 06:36:17;;;;;;;;;;;19.00;66.20;;;;;;6127757;23;19905;-93
2023/06/02 06:38:43;;;;;;;;;;;19.10;65.60;;;;;;6126847;23;19905;-91
2023/06/02 06:41:08;;;;;;;;;;;19.10;65.20;;;;;;6125267;23;20012;-93
2023/06/02 06:43:34;;;;;;;;;;;19.10;64.90;;;;;;6126458;23;20483;-92
2023/06/02 06:45:59;;;;;;;;;;;19.10;64.50;;;;;;6128425;23;19916;-92
2023/06/02 06:48:25;;;;;;;;;;;19.10;64.30;;;;;;6126104;23;19909;-92
2023/06/02 06:50:51;;;;;;;;;;;19.20;64.40;;;;;;6126007;23;19912;-92
2023/06/02 06:53:17;;;;;;;;;;;19.30;64.10;;;;;;6125541;23;20370;-92
2023/06/02 06:55:42;;;;;;;;;;;19.30;63.90;;;;;;6123780;23;19915;-89
2023/06/02 06:58:08;;;;;;;;;;;19.30;64.00;;;;;;6125926;23;19932;-91
2023/06/02 07:00:33;;;;;;;;;;;19.40;64.00;;;;;;6123820;23;19909;-89
2023/06/02 07:02:59;;;;;;;;;;;19.50;63.80;;;;;;6125514;23;19947;-91
2023/06/02 07:05:25;;;;;;;;;;;19.50;63.70;;;;;;6125293;23;19905;-91
2023/06/02 07:07:50;;;;;;;;;;;19.50;63.80;;;;;;6125710;23;19912;-91
2023/06/02 07:10:16;;;;;;;;;;;19.60;63.90;;;;;;6125225;23;19909;-92
2023/06/02 07:12:42;;;;;;;;;;;19.60;64.00;;;;;;6125667;23;19908;-91
2023/06/02 07:15:10;;;;;;;;;;;19.60;64.00;;;;;;6124021;23;19909;-89
2023/06/02 07:17:36;;;;;;;;;;;19.50;63.30;;;;;;6125211;23;19987;-90
2023/06/02 07:20:02;;;;;;;;;;;19.70;63.30;;;;;;6125200;23;20255;-90
2023/06/02 07:22:27;;;;;;;;;;;19.80;63.40;;;;;;6125695;23;19989;-90
2023/06/02 07:24:53;;;;;;;;;;;19.80;63.30;;;;;;6125106;23;19909;-89
2023/06/02 07:27:18;;;;;;;;;;;19.90;63.60;;;;;;6125285;23;20341;-88
2023/06/02 07:29:44;;;;;;;;;;;19.90;63.40;;;;;;6126157;23;19911;-91
2023/06/02 07:32:09;;;;;;;;;;;20.00;63.20;;;;;;6125069;23;19917;-90
2023/06/02 07:34:37;;;;;;;;;;;20.00;63.20;;;;;;6124681;23;19905;-90
2023/06/02 07:37:02;;;;;;;;;;;20.00;63.30;;;;;;6125073;23;19916;-91
2023/06/02 07:39:31;;;;;;;;;;;20.10;63.40;;;;;;6124711;23;20732;-90
2023/06/02 07:41:56;;;;;;;;;;;20.10;63.30;;;;;;6124787;23;20345;-89
2023/06/02 07:44:22;;;;;;;;;;;20.20;63.00;;;;;;6124458;23;19972;-90
2023/06/02 07:46:47;;;;;;;;;;;20.20;62.40;;;;;;6123891;23;19909;-91
2023/06/02 07:49:13;;;;;;;;;;;20.30;62.10;;;;;;6124375;23;20345;-90
2023/06/02 07:51:39;;;;;;;;;;;20.30;62.30;;;;;;6124490;23;19909;-89
2023/06/02 07:54:04;;;;;;;;;;;20.30;62.20;;;;;;6125101;23;20226;-89
2023/06/02 07:56:30;;;;;;;;;;;20.40;62.50;;;;;;6124666;23;19905;-90
2023/06/02 07:58:55;;;;;;;;;;;20.40;62.50;;;;;;6124219;23;20343;-90
2023/06/02 08:01:21;;;;;;;;;;;20.50;62.60;;;;;;6124054;23;20374;-90
2023/06/02 08:03:46;;;;;;;;;;;20.50;62.50;;;;;;6124328;23;19912;-92
2023/06/02 08:06:12;;;;;;;;;;;20.50;63.10;;;;;;6124810;23;19920;-89
2023/06/02 08:08:38;;;;;;;;;;;20.60;62.40;;;;;;6126015;23;19905;-91
2023/06/02 08:11:03;;;;;;;;;;;20.70;62.40;;;;;;6124250;23;19905;-91
2023/06/02 08:13:29;;;;;;;;;;;20.70;62.20;;;;;;6123475;23;19924;-90
2023/06/02 08:15:54;;;;;;;;;;;20.70;62.20;;;;;;6124425;23;20004;-92
2023/06/02 08:18:20;;;;;;;;;;;20.70;62.50;;;;;;6124703;23;19905;-92
2023/06/02 08:20:45;;;;;;;;;;;20.80;62.40;;;;;;6123043;23;19952;-92
2023/06/02 08:23:11;;;;;;;;;;;20.80;62.50;;;;;;6124630;23;19964;-93
2023/06/02 08:25:38;;;;;;;;;;;20.90;62.70;;;;;;6124580;23;19909;-92
2023/06/02 08:28:06;;;;;;;;;;;20.90;62.10;;;;;;6123699;23;19948;-93
2023/06/02 08:30:33;;;;;;;;;;;21.00;62.20;;;;;;6124478;23;19909;-93
2023/06/02 08:33:02;;;;;;;;;;;21.00;62.30;;;;;;6126583;23;19913;-94
2023/06/02 08:35:28;;;;;;;;;;;21.00;62.80;;;;;;6127386;23;19905;-93
2023/06/02 08:37:55;;;;;;;;;;;21.00;63.10;;;;;;6125404;23;20369;-91
2023/06/02 08:40:23;;;;;;;;;;;21.10;62.90;;;;;;6125537;23;19968;-93
2023/06/02 08:42:49;;;;;;;;;;;21.10;64.70;;;;;;6125789;23;19905;-90
2023/06/02 08:45:20;;;;;;;;;;;21.20;64.20;;;;;;6125228;23;19912;-94
2023/06/02 08:47:51;;;;;;;;;;;21.20;64.50;;;;;;6125556;23;19916;-93
2023/06/02 08:50:16;;;;;;;;;;;21.20;63.70;;;;;;6124119;23;19905;-93
2023/06/02 08:52:44;;;;;;;;;;;21.20;63.90;;;;;;6124868;23;20374;-94
2023/06/02 08:55:09;;;;;;;;;;;21.20;63.90;;;;;;6125116;23;19913;-93
2023/06/02 08:57:35;;;;;;;;;;;21.30;63.00;;;;;;6123013;23;19909;-91
2023/06/02 09:00:00;;;;;;;;;;;21.30;63.50;;;;;;6124438;23;19936;-93
2023/06/02 09:02:26;;;;;;;;;;;21.30;62.50;;;;;;6124650;23;19955;-92
2023/06/02 09:04:52;;;;;;;;;;;21.30;61.90;;;;;;6124547;23;19905;-91
2023/06/02 09:07:20;;;;;;;;;;;21.40;63.50;;;;;;6124326;23;19976;-93
2023/06/02 09:09:47;;;;;;;;;;;21.40;63.70;;;;;;6124314;23;19904;-92
2023/06/02 09:12:14;;;;;;;;;;;21.40;62.60;;;;;;6124468;23;19947;-93
2023/06/02 09:14:40;;;;;;;;;;;21.40;62.00;;;;;;6124175;23;20238;-93
2023/06/02 09:17:25;;;;;;;;;;;21.50;61.70;;;;;;6125924;23;19905;-94
2023/06/02 09:19:52;;;;;;;;;;;21.50;61.80;;;;;;6124932;23;19999;-93
2023/06/02 09:22:17;;;;;;;;;;;21.50;63.10;;;;;;6124401;23;19909;-92
2023/06/02 09:24:43;;;;;;;;;;;21.50;61.60;;;;;;6101335;23;19915;-91
2023/06/02 09:27:12;;;;;;;;;;;21.50;62.50;;;;;;6099884;23;19928;-93
2023/06/02 09:29:38;;;;;;;;;;;21.60;61.40;;;;;;6100279;23;20303;-93
2023/06/02 09:32:04;;;;;;;;;;;21.70;61.40;;;;;;6099607;23;19916;-92
2023/06/02 09:34:36;;;;;;;;;;;21.70;61.30;;;;;;6100030;23;20323;-93
2023/06/02 09:37:12;;;;;;;;;;;21.70;62.40;;;;;;6099035;23;20326;-93
2023/06/02 09:39:42;;;;;;;;;;;21.70;61.40;;;;;;6100377;23;19912;-92
2023/06/02 09:42:08;;;;;;;;;;;21.70;61.30;;;;;;6098883;23;19905;-92
2023/06/02 09:44:33;;;;;;;;;;;21.70;60.90;;;;;;6100484;23;19927;-90
2023/06/02 09:47:03;;;;;;;;;;;21.60;61.50;;;;;;6099705;23;20522;-92
2023/06/02 09:49:39;;;;;;;;;;;21.70;61.20;;;;;;6125349;23;19905;-91
2023/06/02 09:52:12;;;;;;;;;;;21.80;61.10;;;;;;6100139;23;19909;-92
2023/06/02 09:54:38;;;;;;;;;;;21.80;60.80;;;;;;6099941;23;19916;-91
2023/06/02 09:57:04;;;;;;;;;;;21.80;60.10;;;;;;6101609;23;20326;-92
2023/06/02 09:59:30;;;;;;;;;;;21.90;60.80;;;;;;6102794;23;19962;-93
2023/06/02 10:01:55;;;;;;;;;;;21.90;59.60;;;;;;6103228;23;20310;-93
2023/06/02 10:04:21;;;;;;;;;;;21.80;59.00;;;;;;6102643;23;19905;-94
2023/06/02 10:06:52;;;;;;;;;;;21.80;58.50;;;;;;6103042;23;19909;-94
2023/06/02 10:09:44;;;;;;;;;;;21.80;57.70;;;;;;6103810;23;19905;-93
2023/06/02 10:12:19;;;;;;;;;;;21.80;56.90;;;;;;6073743;23;20307;-95
2023/06/02 10:14:45;;;;;;;;;;;21.80;56.90;;;;;;6103351;23;19909;-94
2023/06/02 10:20:32;;;;;;;;;;;21.90;57.30;;;;;;6065604;23;19915;-94
2023/06/02 10:23:20;;;;;;;;;;;21.90;57.40;;;;;;6114885;23;19913;-90
2023/06/02 10:25:46;;;;;;;;;;;21.90;57.90;;;;;;6101234;23;19940;-93
2023/06/02 10:28:11;;;;;;;;;;;21.90;57.90;;;;;;6101965;23;19916;-93
2023/06/02 10:30:37;;;;;;;;;;;21.90;57.80;;;;;;6101291;23;19912;-92
2023/06/02 10:33:03;;;;;;;;;;;21.90;58.60;;;;;;6102988;23;20611;-93
2023/06/02 10:35:47;;;;;;;;;;;21.90;59.20;;;;;;6101865;23;20286;-93
2023/06/02 10:38:26;;;;;;;;;;;21.80;57.50;;;;;;6101443;23;19905;-93
2023/06/02 10:40:52;;;;;;;;;;;21.80;58.20;;;;;;6101899;23;20393;-92
2023/06/02 10:43:17;;;;;;;;;;;21.80;58.00;;;;;;6101677;23;19905;-93
2023/06/02 10:45:43;;;;;;;;;;;21.70;58.00;;;;;;6101118;23;19909;-94
2023/06/02 10:48:27;;;;;;;;;;;21.70;58.40;;;;;;6103785;23;19909;-90
2023/06/02 10:50:56;;;;;;;;;;;21.70;59.20;;;;;;6127130;23;19909;-91
2023/06/02 10:53:21;;;;;;;;;;;21.70;57.90;;;;;;6099325;23;19992;-93
2023/06/02 10:55:47;;;;;;;;;;;21.70;59.00;;;;;;6101048;23;19908;-91
2023/06/02 10:58:13;;;;;;;;;;;21.60;58.20;;;;;;6101876;23;19988;-91
2023/06/02 11:00:39;;;;;;;;;;;21.50;58.20;;;;;;6101065;23;20230;-91
2023/06/02 11:03:26;;;;;;;;;;;21.40;58.20;;;;;;6101256;23;19909;-92
2023/06/02 11:06:11;;;;;;;;;;;21.40;58.40;;;;;;6101204;23;19905;-90
2023/06/02 11:08:37;;;;;;;;;;;21.40;58.50;;;;;;6101091;23;20394;-91
2023/06/02 11:11:03;;;;;;;;;;;21.30;57.80;;;;;;6101449;23;19909;-91
2023/06/02 11:13:49;;;;;;;;;;;21.30;58.50;;;;;;6126899;23;19913;-91
2023/06/02 11:16:15;;;;;;;;;;;21.30;58.20;;;;;;6099668;23;19987;-91
2023/06/02 11:18:40;;;;;;;;;;;21.30;58.50;;;;;;6101846;23;20279;-90
2023/06/02 11:21:17;;;;;;;;;;;21.30;58.20;;;;;;6101526;23;20377;-90
2023/06/02 11:23:43;;;;;;;;;;;21.30;58.00;;;;;;6112464;23;19988;-92
2023/06/02 11:26:10;;;;;;;;;;;21.30;57.90;;;;;;6125941;23;19940;-91
2023/06/02 11:28:35;;;;;;;;;;;21.30;59.50;;;;;;6125449;23;19979;-91
2023/06/02 11:31:04;;;;;;;;;;;21.40;59.90;;;;;;6126245;23;19905;-92
2023/06/02 11:33:31;;;;;;;;;;;21.40;62.20;;;;;;6126111;23;19913;-89
2023/06/02 11:39:02;;;;;;;;;;;21.40;60.30;;;;;;6039164;23;20455;-92
2023/06/02 11:41:28;;;;;;;;;;;21.30;60.00;;;;;;6014693;23;19910;-90
2023/06/02 11:44:02;;;;;;;;;;;21.10;59.50;;;;;;6013724;23;19906;-89
2023/06/02 11:46:27;;;;;;;;;;;21.10;60.00;;;;;;6014331;23;19906;-90
2023/06/02 11:48:53;;;;;;;;;;;21.00;59.80;;;;;;6015124;23;19910;-92
2023/06/02 11:51:18;;;;;;;;;;;21.00;60.20;;;;;;6014787;23;19954;-91
2023/06/02 11:53:45;;;;;;;;;;;21.00;59.90;;;;;;6038506;23;19961;-92
2023/06/02 11:56:14;;;;;;;;;;;21.00;59.80;;;;;;6015197;23;19943;-94
2023/06/02 11:58:44;;;;;;;;;;;21.00;60.30;;;;;;6015133;23;19913;-89
2023/06/02 12:01:09;;;;;;;;;;;21.10;61.50;;;;;;6015366;23;19906;-89
2023/06/02 12:03:36;;;;;;;;;;;21.10;60.70;;;;;;6014738;23;20280;-90
2023/06/02 12:06:28;;;;;;;;;;;21.20;63.80;;;;;;6014932;23;19906;-93
2023/06/02 12:08:54;;;;;;;;;;;21.20;62.00;;;;;;6010293;23;19910;-91
2023/06/02 12:11:22;;;;;;;;;;;21.20;61.50;;;;;;6015210;23;19913;-91
2023/06/02 12:13:57;;;;;;;;;;;21.20;61.00;;;;;;6014181;23;19953;-91
2023/06/02 12:16:26;;;;;;;;;;;21.10;60.50;;;;;;6096379;23;19924;-89
2023/06/02 12:18:53;;;;;;;;;;;21.10;60.90;;;;;;6125770;23;19947;-92
2023/06/02 12:21:23;;;;;;;;;;;21.10;61.40;;;;;;6126200;23;19999;-90
2023/06/02 12:23:48;;;;;;;;;;;21.10;60.60;;;;;;6125819;23;19991;-90
2023/06/02 12:26:17;;;;;;;;;;;21.10;60.80;;;;;;6126133;23;19905;-91
2023/06/02 12:28:43;;;;;;;;;;;21.10;60.50;;;;;;6125474;23;19940;-91
2023/06/02 12:31:09;;;;;;;;;;;21.10;60.20;;;;;;6126195;23;19905;-90
2023/06/02 12:33:34;;;;;;;;;;;21.20;63.30;;;;;;6126155;23;20397;-91
2023/06/02 12:36:00;;;;;;;;;;;21.30;61.20;;;;;;6126967;23;20330;-91
2023/06/02 12:38:27;;;;;;;;;;;21.20;60.90;;;;;;6124573;23;19905;-90
2023/06/02 12:40:52;;;;;;;;;;;21.20;60.50;;;;;;6126610;23;20323;-91
2023/06/02 12:43:19;;;;;;;;;;;21.10;60.00;;;;;;6125736;23;19943;-90
2023/06/02 12:45:45;;;;;;;;;;;21.00;60.00;;;;;;6125630;23;19969;-92
2023/06/02 12:48:11;;;;;;;;;;;21.10;60.60;;;;;;6126577;23;19956;-91
2023/06/02 12:50:37;;;;;;;;;;;21.20;61.20;;;;;;6125977;23;20027;-92
2023/06/02 12:53:03;;;;;;;;;;;21.20;59.60;;;;;;6126367;23;19920;-92
2023/06/02 12:55:30;;;;;;;;;;;21.20;60.30;;;;;;6126124;23;19904;-91
2023/06/02 12:57:55;;;;;;;;;;;21.20;60.20;;;;;;6125504;23;19906;-92
2023/06/02 13:00:22;;;;;;;;;;;21.20;61.30;;;;;;6126430;23;20326;-91
2023/06/02 13:02:47;;;;;;;;;;;21.20;60.60;;;;;;6126002;23;20327;-92
2023/06/02 13:05:13;;;;;;;;;;;21.20;60.90;;;;;;6127544;23;19928;-92
2023/06/02 13:07:39;;;;;;;;;;;21.10;59.80;;;;;;6125708;23;19940;-92
2023/06/02 13:10:05;;;;;;;;;;;21.10;59.70;;;;;;6126178;23;19905;-90
2023/06/02 13:12:31;;;;;;;;;;;21.10;59.60;;;;;;6125806;23;19916;-92
2023/06/02 13:14:56;;;;;;;;;;;21.10;59.90;;;;;;6127084;23;19916;-91
2023/06/02 13:17:22;;;;;;;;;;;21.10;60.50;;;;;;6125926;23;19905;-92
2023/06/02 13:19:47;;;;;;;;;;;21.10;60.20;;;;;;6125874;23;19979;-92
2023/06/02 13:22:13;;;;;;;;;;;21.10;60.10;;;;;;6126970;23;19931;-92
2023/06/02 13:24:39;;;;;;;;;;;21.10;59.90;;;;;;6125696;23;19920;-91
2023/06/02 13:27:05;;;;;;;;;;;21.10;61.70;;;;;;6125757;23;19905;-92
2023/06/02 13:29:30;;;;;;;;;;;21.10;61.00;;;;;;6125977;23;19912;-92
2023/06/02 13:31:56;;;;;;;;;;;21.20;61.10;;;;;;6127795;23;19909;-91
2023/06/02 13:34:21;;;;;;;;;;;21.20;60.70;;;;;;6125457;23;19908;-91
2023/06/02 13:36:47;;;;;;;;;;;21.10;60.80;;;;;;6125910;23;19958;-92
2023/06/02 13:39:14;;;;;;;;;;;21.10;60.40;;;;;;6125807;23;19911;-91
2023/06/02 13:41:39;;;;;;;;;;;21.10;60.80;;;;;;6126092;23;19912;-91
2023/06/02 13:44:09;;;;;;;;;;;21.10;60.10;;;;;;6125955;23;19905;-92
2023/06/02 13:46:35;;;;;;;;;;;21.10;60.50;;;;;;6126071;23;19912;-90
2023/06/02 13:49:00;;;;;;;;;;;21.20;59.60;;;;;;6127469;23;19905;-90
2023/06/02 13:51:26;;;;;;;;;;;21.10;59.90;;;;;;6126157;23;20301;-91
2023/06/02 13:53:51;;;;;;;;;;;21.10;59.50;;;;;;6125586;23;19995;-91
2023/06/02 13:56:17;;;;;;;;;;;21.10;60.60;;;;;;6125397;23;19983;-92
2023/06/02 13:58:42;;;;;;;;;;;21.10;59.70;;;;;;6125830;23;20007;-92
2023/06/02 14:01:08;;;;;;;;;;;21.10;59.20;;;;;;6124465;23;19909;-91
2023/06/02 14:03:33;;;;;;;;;;;21.10;59.40;;;;;;6124684;23;19983;-90
2023/06/02 14:05:59;;;;;;;;;;;21.10;59.50;;;;;;6123666;23;19965;-91
2023/06/02 14:08:24;;;;;;;;;;;21.00;59.60;;;;;;6125030;23;19905;-91
2023/06/02 14:10:53;;;;;;;;;;;21.10;60.00;;;;;;6124388;23;19905;-91
2023/06/02 14:13:18;;;;;;;;;;;21.00;59.70;;;;;;6124286;23;19913;-93
2023/06/02 14:15:44;;;;;;;;;;;21.00;59.90;;;;;;6124172;23;19909;-91
2023/06/02 14:18:10;;;;;;;;;;;21.00;60.60;;;;;;6124488;23;20051;-90
2023/06/02 14:20:35;;;;;;;;;;;21.00;59.70;;;;;;6123902;23;19916;-91